Time;durP1;ratioP1;P1;durP2;ratioP2;P2;SDS_P1;SDS_P2;PMS_P1;PMS_P2;Temp;Humidity;BMP_temperature;BMP_pressure;BME280_temperature;BME280_humidity;BME280_pressure;Samples;Min_cycle;Max_cycle;Signal;HPM_P1;HPM_P2
2021/03/26 00:02:01;;;;;;;63.33;24.87;;;9.30;97.30;;;;;;5016582;28;20441;-91
2021/03/26 00:04:26;;;;;;;61.40;26.47;;;9.30;97.30;;;;;;5016384;28;20527;-91
2021/03/26 00:06:54;;;;;;;56.77;23.27;;;9.20;97.30;;;;;;5016443;28;20483;-92
2021/03/26 00:24:40;;;;;;;65.33;26.80;;;8.60;97.30;;;;;;5185395;23;20615;-91
2021/03/26 00:27:06;;;;;;;65.73;25.00;;;8.60;97.30;;;;;;5046138;28;20465;-91
2021/03/26 00:29:31;;;;;;;63.10;24.07;;;8.60;97.30;;;;;;5055647;28;20175;-92
2021/03/26 00:31:57;;;;;;;61.77;23.80;;;8.60;97.30;;;;;;5054889;28;20475;-91
2021/03/26 00:34:23;;;;;;;55.97;24.63;;;8.50;97.30;;;;;;5055000;28;20220;-92
2021/03/26 00:49:25;;;;;;;67.23;25.77;;;8.30;97.30;;;;;;5910602;23;21022;-92
2021/03/26 00:51:50;;;;;;;71.27;25.90;;;8.30;97.30;;;;;;5071419;28;20413;-91
2021/03/26 00:54:17;;;;;;;74.50;26.40;;;8.30;97.30;;;;;;5071246;28;20455;-91
2021/03/26 00:56:44;;;;;;;65.53;26.50;;;8.30;97.30;;;;;;5066791;28;20200;-91
2021/03/26 00:59:11;;;;;;;62.97;25.83;;;8.20;97.30;;;;;;5051028;28;20462;-92
2021/03/26 01:04:08;;;;;;;65.63;26.67;;;8.00;97.30;;;;;;5072006;23;20490;-84
2021/03/26 01:06:34;;;;;;;75.23;26.80;;;7.90;97.30;;;;;;5033897;28;20461;-84
2021/03/26 01:09:01;;;;;;;69.30;28.17;;;7.80;97.30;;;;;;5033878;28;20168;-85
2021/03/26 01:11:31;;;;;;;76.03;27.27;;;7.80;97.30;;;;;;5033778;28;20410;-85
2021/03/26 01:13:57;;;;;;;67.97;27.47;;;7.70;97.30;;;;;;5034114;28;20434;-84
2021/03/26 01:16:25;;;;;;;68.47;26.37;;;7.70;97.30;;;;;;5033733;28;20930;-84
2021/03/26 01:18:51;;;;;;;69.60;26.00;;;7.70;97.30;;;;;;5033932;28;20422;-84
2021/03/26 01:21:21;;;;;;;66.77;26.43;;;7.70;97.30;;;;;;5052553;28;20915;-83
2021/03/26 01:23:47;;;;;;;67.40;26.03;;;7.70;97.30;;;;;;5033373;28;21041;-85
2021/03/26 01:26:13;;;;;;;59.60;25.43;;;7.70;97.30;;;;;;5034053;28;20465;-84
2021/03/26 01:28:39;;;;;;;62.47;23.63;;;7.70;97.30;;;;;;5052319;28;20402;-84
2021/03/26 01:31:05;;;;;;;57.03;24.83;;;7.70;97.30;;;;;;5034472;28;20410;-84
2021/03/26 01:33:31;;;;;;;66.20;25.47;;;7.70;97.30;;;;;;5033889;28;20668;-85
2021/03/26 01:35:58;;;;;;;72.47;25.70;;;7.60;97.30;;;;;;5036854;28;20422;-84
2021/03/26 01:38:25;;;;;;;67.03;28.23;;;7.60;97.30;;;;;;5038171;28;20419;-84
2021/03/26 01:41:01;;;;;;;86.33;30.13;;;7.60;97.30;;;;;;5037962;28;20471;-84
2021/03/26 01:43:32;;;;;;;80.30;30.77;;;7.60;97.30;;;;;;5038090;28;20433;-84
2021/03/26 01:45:58;;;;;;;75.03;30.20;;;7.50;97.30;;;;;;5037709;28;20446;-84
2021/03/26 01:48:31;;;;;;;78.07;30.93;;;7.50;97.30;;;;;;5037562;28;20418;-84
2021/03/26 01:51:00;;;;;;;74.20;28.00;;;7.50;97.30;;;;;;5037624;28;20437;-84
2021/03/26 01:53:26;;;;;;;67.47;27.07;;;7.50;97.30;;;;;;5037124;28;20487;-83
2021/03/26 01:55:57;;;;;;;72.97;27.57;;;7.50;97.30;;;;;;5037691;28;20418;-84
2021/03/26 01:58:27;;;;;;;62.87;24.83;;;7.50;97.30;;;;;;5037339;28;20463;-84
2021/03/26 02:00:56;;;;;;;70.20;27.67;;;7.50;97.30;;;;;;5037852;28;20629;-84
2021/03/26 02:03:26;;;;;;;69.30;27.60;;;7.40;97.30;;;;;;5055160;28;20527;-83
2021/03/26 02:05:55;;;;;;;73.67;27.17;;;7.40;97.30;;;;;;5037794;28;20488;-84
2021/03/26 02:08:34;;;;;;;67.70;27.97;;;7.30;97.30;;;;;;5037470;28;20922;-84
2021/03/26 02:11:22;;;;;;;69.80;27.40;;;7.30;97.30;;;;;;5037621;28;20873;-84
2021/03/26 02:13:49;;;;;;;72.57;27.30;;;7.30;97.30;;;;;;5019944;28;20528;-85
2021/03/26 02:16:18;;;;;;;80.13;29.73;;;7.20;97.30;;;;;;5055533;28;20398;-84
2021/03/26 02:18:44;;;;;;;85.30;30.20;;;7.10;97.30;;;;;;5037492;28;20471;-84
2021/03/26 02:21:17;;;;;;;74.30;27.40;;;7.10;97.30;;;;;;5055050;28;20410;-84
2021/03/26 02:23:45;;;;;;;74.20;28.93;;;7.10;97.30;;;;;;5054874;28;20438;-84
2021/03/26 02:26:30;;;;;;;78.37;29.57;;;7.10;97.30;;;;;;5036882;28;20468;-84
2021/03/26 02:28:57;;;;;;;83.63;28.77;;;7.20;97.30;;;;;;5037008;28;20402;-84
2021/03/26 02:31:24;;;;;;;71.03;28.03;;;7.20;97.30;;;;;;5037552;28;20415;-84
2021/03/26 02:33:50;;;;;;;59.63;26.80;;;7.20;97.30;;;;;;5037226;28;20434;-84
2021/03/26 02:36:17;;;;;;;63.33;25.83;;;7.20;97.30;;;;;;5037337;28;20422;-84
2021/03/26 02:38:53;;;;;;;73.23;27.33;;;7.30;97.30;;;;;;5036929;28;20425;-82
2021/03/26 02:41:41;;;;;;;74.63;26.13;;;7.20;97.30;;;;;;5036919;28;20458;-84
2021/03/26 02:44:25;;;;;;;67.33;25.83;;;7.20;97.30;;;;;;5036811;28;20445;-84
2021/03/26 02:46:56;;;;;;;62.23;24.67;;;7.10;97.30;;;;;;5035709;28;20477;-84
2021/03/26 02:49:35;;;;;;;62.30;24.93;;;7.10;97.30;;;;;;5036727;28;20421;-84
2021/03/26 02:52:18;;;;;;;78.13;27.30;;;7.00;97.30;;;;;;5036314;28;20434;-84
2021/03/26 02:54:51;;;;;;;80.20;27.53;;;6.90;97.30;;;;;;5036223;28;20414;-85
2021/03/26 02:57:33;;;;;;;68.87;26.53;;;6.90;97.30;;;;;;5054397;28;20939;-84
2021/03/26 03:00:25;;;;;;;66.53;24.23;;;6.90;97.30;;;;;;5054301;28;20406;-85
2021/03/26 03:02:56;;;;;;;66.33;23.13;;;6.80;97.30;;;;;;5053426;28;20474;-84
2021/03/26 03:05:35;;;;;;;68.00;25.23;;;6.80;97.30;;;;;;5053997;28;20484;-84
2021/03/26 03:08:13;;;;;;;61.67;25.80;;;6.80;97.30;;;;;;5036077;28;20414;-84
2021/03/26 03:10:51;;;;;;;57.63;24.90;;;6.70;97.30;;;;;;5036150;28;20413;-84
2021/03/26 03:13:36;;;;;;;66.03;26.87;;;6.70;97.30;;;;;;5036054;28;20422;-84
2021/03/26 03:16:05;;;;;;;65.97;25.70;;;6.60;97.30;;;;;;5053753;28;20407;-84
2021/03/26 03:18:36;;;;;;;73.23;25.97;;;6.50;97.30;;;;;;5036367;28;20943;-84
2021/03/26 03:21:06;;;;;;;65.37;24.00;;;6.50;97.30;;;;;;5036850;28;20507;-84
2021/03/26 03:23:51;;;;;;;69.00;26.47;;;6.50;97.30;;;;;;5054988;28;20497;-84
2021/03/26 03:26:22;;;;;;;56.27;22.20;;;6.40;97.30;;;;;;5036965;28;20648;-84
2021/03/26 03:29:07;;;;;;;56.97;24.57;;;6.40;97.30;;;;;;5036636;28;20509;-84
2021/03/26 03:31:37;;;;;;;62.17;24.20;;;6.30;97.30;;;;;;5036958;28;20421;-84
2021/03/26 03:34:35;;;;;;;74.07;26.83;;;6.30;97.30;;;;;;5036281;28;20438;-84
2021/03/26 03:37:33;;;;;;;69.37;26.10;;;6.20;97.30;;;;;;5037167;28;20509;-84
2021/03/26 03:39:58;;;;;;;59.87;23.10;;;6.20;97.30;;;;;;5037260;28;20425;-84
2021/03/26 03:42:43;;;;;;;57.13;22.90;;;6.20;97.30;;;;;;5036122;28;20434;-83
2021/03/26 03:45:27;;;;;;;62.73;23.03;;;6.10;97.30;;;;;;5054585;28;20168;-84
2021/03/26 03:48:18;;;;;;;60.40;22.33;;;6.00;97.30;;;;;;5039833;28;20438;-85
2021/03/26 03:50:56;;;;;;;54.30;21.60;;;6.00;97.30;;;;;;5016633;28;20506;-84
2021/03/26 03:53:38;;;;;;;55.60;22.60;;;6.00;97.30;;;;;;5016818;28;20792;-85
2021/03/26 03:56:13;;;;;;;58.70;23.70;;;5.90;97.30;;;;;;5016726;28;20439;-84
2021/03/26 03:58:42;;;;;;;56.43;22.40;;;5.90;97.30;;;;;;5015891;28;20415;-84
2021/03/26 04:01:38;;;;;;;59.97;24.77;;;5.80;97.30;;;;;;5033988;28;20537;-84
2021/03/26 04:04:18;;;;;;;57.87;21.70;;;5.80;97.30;;;;;;4979158;28;20464;-84
2021/03/26 04:06:54;;;;;;;61.47;26.07;;;5.70;97.30;;;;;;5013342;28;20472;-85
2021/03/26 04:09:25;;;;;;;64.63;24.10;;;5.70;97.30;;;;;;5013049;28;20446;-84
2021/03/26 04:11:55;;;;;;;69.50;24.03;;;5.60;97.30;;;;;;5013999;28;20404;-85
2021/03/26 04:14:24;;;;;;;63.93;25.10;;;5.60;97.30;;;;;;5013181;28;20432;-83
2021/03/26 04:17:01;;;;;;;51.33;21.93;;;5.60;97.30;;;;;;5014639;28;20462;-84
2021/03/26 04:19:51;;;;;;;54.27;22.87;;;5.60;97.30;;;;;;5013235;28;20424;-84
2021/03/26 04:22:21;;;;;;;71.37;25.50;;;5.50;97.30;;;;;;5012826;28;20439;-84
2021/03/26 04:24:52;;;;;;;61.43;23.60;;;5.50;97.30;;;;;;5012906;28;20617;-84
2021/03/26 04:27:31;;;;;;;59.30;22.57;;;5.50;97.30;;;;;;5014329;28;20490;-84
2021/03/26 04:30:05;;;;;;;60.57;24.00;;;5.40;97.30;;;;;;5012769;28;20420;-84
2021/03/26 04:32:32;;;;;;;57.80;23.13;;;5.40;97.30;;;;;;5012766;28;20428;-84
2021/03/26 04:34:58;;;;;;;60.70;23.43;;;5.40;97.30;;;;;;5012995;28;20424;-84
2021/03/26 04:37:59;;;;;;;61.03;23.13;;;5.40;97.30;;;;;;5012800;28;20474;-84
2021/03/26 04:40:38;;;;;;;69.43;25.67;;;5.30;97.30;;;;;;5012694;28;20437;-85
2021/03/26 04:43:26;;;;;;;75.37;25.73;;;5.30;97.30;;;;;;5013057;28;20451;-84
2021/03/26 04:46:20;;;;;;;64.97;26.57;;;5.30;97.30;;;;;;5012985;28;20479;-84
2021/03/26 04:49:20;;;;;;;66.87;26.47;;;5.30;97.30;;;;;;5012746;28;20420;-84
2021/03/26 04:51:49;;;;;;;69.80;26.27;;;5.20;97.30;;;;;;5011969;28;20551;-83
2021/03/26 04:54:56;;;;;;;64.00;25.10;;;5.20;97.30;;;;;;5013453;28;20416;-83
2021/03/26 04:57:34;;;;;;;50.97;22.57;;;5.20;97.30;;;;;;5008605;28;21009;-84
2021/03/26 05:00:21;;;;;;;69.77;26.50;;;5.20;97.30;;;;;;5012627;28;20432;-84
2021/03/26 05:02:52;;;;;;;60.10;22.67;;;5.20;97.30;;;;;;5012334;28;20484;-84
2021/03/26 05:05:19;;;;;;;61.60;23.03;;;5.10;97.30;;;;;;5012391;28;20424;-85
2021/03/26 05:07:48;;;;;;;60.63;23.37;;;5.00;97.30;;;;;;5012441;28;20478;-85
2021/03/26 05:10:18;;;;;;;68.87;23.77;;;5.00;97.30;;;;;;5011783;28;20427;-85
2021/03/26 05:12:48;;;;;;;67.33;23.17;;;5.00;97.30;;;;;;5012502;28;20948;-84
2021/03/26 05:15:26;;;;;;;66.27;25.27;;;5.00;97.30;;;;;;5012092;28;20920;-84
2021/03/26 05:17:57;;;;;;;60.67;24.57;;;5.00;97.30;;;;;;5011398;28;20424;-84
2021/03/26 05:20:30;;;;;;;77.57;25.57;;;5.00;97.30;;;;;;5012365;28;20420;-85
2021/03/26 05:23:08;;;;;;;61.77;23.57;;;5.00;97.30;;;;;;5013144;28;20440;-85
2021/03/26 05:25:37;;;;;;;70.93;25.87;;;5.10;97.30;;;;;;5013829;28;20424;-85
2021/03/26 05:28:06;;;;;;;60.17;23.90;;;5.10;97.30;;;;;;5026664;28;20434;-86
2021/03/26 05:30:39;;;;;;;72.80;25.40;;;5.00;97.30;;;;;;5025609;28;20420;-84
2021/03/26 05:33:16;;;;;;;66.10;24.53;;;5.10;97.30;;;;;;5012343;28;20440;-85
2021/03/26 05:35:55;;;;;;;65.83;25.63;;;5.10;97.30;;;;;;5010893;28;20412;-84
2021/03/26 05:38:31;;;;;;;71.07;25.43;;;5.20;97.30;;;;;;5011878;28;20703;-84
2021/03/26 05:41:39;;;;;;;58.37;23.50;;;5.20;97.30;;;;;;5010675;28;20418;-85
2021/03/26 05:44:17;;;;;;;67.87;26.00;;;5.20;97.30;;;;;;4972978;28;20432;-84
2021/03/26 05:46:55;;;;;;;77.67;27.10;;;5.30;97.30;;;;;;5015966;28;20461;-84
2021/03/26 05:49:42;;;;;;;66.70;24.90;;;5.30;97.30;;;;;;5031300;28;20441;-84
2021/03/26 05:52:31;;;;;;;62.17;25.20;;;5.40;97.30;;;;;;5029872;28;20518;-85
2021/03/26 05:55:21;;;;;;;73.70;25.70;;;5.40;97.30;;;;;;5030033;28;20505;-84
2021/03/26 05:58:09;;;;;;;58.07;23.50;;;5.40;97.30;;;;;;5031176;28;20415;-84
2021/03/26 06:00:37;;;;;;;72.97;25.60;;;5.50;97.30;;;;;;5029942;28;20533;-82
2021/03/26 06:03:46;;;;;;;67.37;26.73;;;5.60;97.30;;;;;;5032337;28;20512;-84
2021/03/26 06:06:23;;;;;;;69.23;25.97;;;5.60;97.30;;;;;;4987507;28;20457;-83
2021/03/26 06:09:02;;;;;;;63.80;26.57;;;5.70;97.30;;;;;;5022407;28;20418;-84
2021/03/26 06:11:49;;;;;;;75.33;26.57;;;5.70;97.30;;;;;;5025989;28;20547;-84
2021/03/26 06:14:50;;;;;;;73.40;26.40;;;5.80;97.30;;;;;;5022839;28;20418;-83
2021/03/26 06:17:37;;;;;;;76.27;28.37;;;5.80;97.30;;;;;;4952207;29;20423;-84
2021/03/26 06:20:23;;;;;;;85.33;30.70;;;5.80;97.30;;;;;;5015433;28;20418;-82
2021/03/26 06:23:21;;;;;;;84.67;29.13;;;5.90;97.30;;;;;;5025874;28;20978;-84
2021/03/26 06:26:14;;;;;;;87.23;30.50;;;6.00;97.30;;;;;;5027564;28;20501;-83
2021/03/26 06:29:01;;;;;;;88.33;30.30;;;6.10;97.30;;;;;;5042035;28;20505;-83
2021/03/26 06:31:48;;;;;;;77.53;30.00;;;6.30;97.30;;;;;;5031437;28;20414;-83
2021/03/26 06:34:36;;;;;;;89.43;30.60;;;6.40;97.30;;;;;;5025376;28;20415;-84
2021/03/26 06:37:19;;;;;;;81.63;29.47;;;6.50;97.30;;;;;;5027821;28;20505;-85
2021/03/26 06:40:06;;;;;;;78.20;26.83;;;6.70;97.30;;;;;;5044183;28;20877;-84
2021/03/26 06:42:52;;;;;;;66.43;26.70;;;6.80;97.30;;;;;;5044757;28;20452;-84
2021/03/26 06:45:40;;;;;;;75.40;27.10;;;7.00;97.30;;;;;;5026474;28;20795;-84
2021/03/26 06:48:52;;;;;;;74.83;27.03;;;7.10;97.30;;;;;;5026286;28;20430;-84
2021/03/26 06:51:46;;;;;;;65.77;25.13;;;7.20;97.30;;;;;;5025741;28;20432;-84
2021/03/26 06:54:30;;;;;;;68.77;28.30;;;7.30;97.30;;;;;;5029107;28;20414;-85
2021/03/26 06:57:20;;;;;;;62.67;25.73;;;7.30;97.30;;;;;;5027535;28;20923;-83
2021/03/26 07:00:23;;;;;;;65.20;25.80;;;7.40;97.30;;;;;;5026777;28;20448;-83
2021/03/26 07:03:10;;;;;;;70.33;25.13;;;7.50;97.30;;;;;;5026050;28;20478;-84
2021/03/26 07:06:16;;;;;;;59.50;24.90;;;7.70;97.30;;;;;;5028154;28;20434;-82
2021/03/26 07:09:13;;;;;;;64.10;26.80;;;7.80;97.30;;;;;;5026500;28;20434;-84
2021/03/26 07:11:56;;;;;;;54.03;23.37;;;8.00;97.30;;;;;;5043210;28;20422;-85
2021/03/26 07:14:48;;;;;;;57.67;24.40;;;8.00;97.30;;;;;;5042621;28;20505;-84
2021/03/26 07:17:37;;;;;;;59.17;23.30;;;8.10;97.30;;;;;;5044850;28;20407;-83
2021/03/26 07:20:28;;;;;;;59.10;22.00;;;8.10;97.30;;;;;;5046428;28;20410;-84
2021/03/26 07:23:23;;;;;;;62.93;23.80;;;8.20;97.30;;;;;;5060805;23;20501;-85
2021/03/26 07:26:08;;;;;;;51.13;22.70;;;8.30;97.30;;;;;;5021045;28;20441;-84
2021/03/26 07:28:45;;;;;;;53.13;22.47;;;8.40;97.30;;;;;;5015742;28;20423;-83
2021/03/26 07:31:35;;;;;;;56.83;23.43;;;8.60;97.30;;;;;;5030001;28;20426;-82
2021/03/26 07:34:40;;;;;;;56.20;23.53;;;8.80;97.30;;;;;;5046955;28;20438;-82
2021/03/26 07:37:28;;;;;;;51.20;24.50;;;9.00;97.30;;;;;;5034754;28;20418;-82
2021/03/26 07:40:36;;;;;;;64.40;24.57;;;9.10;97.30;;;;;;5033502;28;20422;-82
2021/03/26 07:43:37;;;;;;;54.97;24.00;;;9.30;97.30;;;;;;5034295;28;20437;-83
2021/03/26 07:46:25;;;;;;;53.80;24.23;;;9.40;97.30;;;;;;4989099;28;20905;-82
2021/03/26 07:49:12;;;;;;;54.83;24.93;;;9.50;97.30;;;;;;5050499;28;20964;-80
2021/03/26 07:51:56;;;;;;;49.83;23.30;;;9.70;97.30;;;;;;5036821;28;20452;-82
2021/03/26 07:54:25;;;;;;;52.70;23.50;;;9.80;97.30;;;;;;5053109;28;20809;-83
2021/03/26 07:57:19;;;;;;;56.33;24.30;;;9.90;97.30;;;;;;5015442;28;20437;-83
2021/03/26 07:59:44;;;;;;;54.70;24.60;;;10.10;97.30;;;;;;5014708;28;20426;-82
2021/03/26 08:02:40;;;;;;;56.47;23.73;;;10.20;97.30;;;;;;5032855;28;20506;-83
2021/03/26 08:05:27;;;;;;;61.00;24.40;;;10.40;97.30;;;;;;5014916;28;20176;-83
2021/03/26 08:08:32;;;;;;;57.07;23.67;;;10.50;97.30;;;;;;5014867;28;20458;-83
2021/03/26 08:11:34;;;;;;;58.03;23.70;;;10.70;97.30;;;;;;5033011;28;20400;-83
2021/03/26 08:14:29;;;;;;;54.63;24.97;;;10.80;97.30;;;;;;5014716;28;20505;-83
2021/03/26 08:17:23;;;;;;;52.20;24.80;;;10.90;97.30;;;;;;5014495;28;20422;-83
2021/03/26 08:20:01;;;;;;;62.00;24.47;;;11.00;97.30;;;;;;5014350;28;20415;-83
2021/03/26 08:22:46;;;;;;;62.17;24.77;;;11.20;97.30;;;;;;5014866;28;20426;-82
2021/03/26 08:25:44;;;;;;;58.83;26.17;;;11.30;97.30;;;;;;5032010;28;20419;-82
2021/03/26 08:28:53;;;;;;;53.13;22.77;;;11.40;97.30;;;;;;5014766;28;20423;-83
2021/03/26 08:31:31;;;;;;;68.17;25.53;;;11.50;97.30;;;;;;5013959;28;20404;-83
2021/03/26 08:34:28;;;;;;;56.23;25.03;;;11.50;97.30;;;;;;5030924;28;20939;-84
2021/03/26 08:36:53;;;;;;;53.40;25.10;;;11.60;97.30;;;;;;5031797;28;20406;-83
2021/03/26 08:39:33;;;;;;;53.90;22.87;;;11.60;97.30;;;;;;5013972;28;20411;-83
2021/03/26 08:42:19;;;;;;;63.03;26.07;;;11.70;97.30;;;;;;5013968;28;20226;-83
2021/03/26 08:44:59;;;;;;;64.40;25.00;;;12.00;97.30;;;;;;5013766;28;20408;-83
2021/03/26 08:47:35;;;;;;;59.70;23.87;;;12.20;97.30;;;;;;5024793;28;20456;-82
2021/03/26 08:50:14;;;;;;;60.30;25.10;;;12.20;97.10;;;;;;5051308;28;20398;-83
2021/03/26 08:52:59;;;;;;;60.33;28.40;;;12.10;97.20;;;;;;5033262;28;20430;-83
2021/03/26 08:55:41;;;;;;;62.20;25.70;;;12.00;97.10;;;;;;5033437;28;20520;-83
2021/03/26 08:58:31;;;;;;;57.70;25.90;;;12.00;97.30;;;;;;5033785;28;20421;-83
2021/03/26 09:01:18;;;;;;;56.40;24.53;;;12.10;97.30;;;;;;5033746;28;20395;-82
2021/03/26 09:04:02;;;;;;;60.67;27.33;;;12.40;97.30;;;;;;5033928;28;20958;-83
2021/03/26 09:06:34;;;;;;;61.07;27.50;;;12.50;96.70;;;;;;5034712;28;20453;-82
2021/03/26 09:09:08;;;;;;;61.33;28.60;;;12.60;96.30;;;;;;5035498;28;20505;-83
2021/03/26 09:11:54;;;;;;;65.60;27.60;;;12.90;97.30;;;;;;5034437;28;20815;-83
2021/03/26 09:15:02;;;;;;;56.40;26.20;;;13.00;95.20;;;;;;5034465;28;20434;-83
2021/03/26 09:17:34;;;;;;;63.87;28.20;;;13.00;95.00;;;;;;4954690;28;20429;-83
2021/03/26 09:20:15;;;;;;;57.60;28.57;;;13.10;94.60;;;;;;4954963;28;20417;-82
2021/03/26 09:23:10;;;;;;;66.83;29.50;;;13.10;94.20;;;;;;5004939;28;20442;-83
2021/03/26 09:25:47;;;;;;;62.90;28.70;;;13.10;94.40;;;;;;5052069;28;20429;-83
2021/03/26 09:28:28;;;;;;;60.07;27.10;;;13.40;93.90;;;;;;5034952;28;20423;-83
2021/03/26 09:31:07;;;;;;;65.83;26.97;;;13.40;94.10;;;;;;5034043;28;20425;-83
2021/03/26 09:33:34;;;;;;;61.77;29.10;;;13.70;93.60;;;;;;5033847;28;20422;-83
2021/03/26 09:36:03;;;;;;;62.43;28.23;;;13.80;93.40;;;;;;5034174;28;20410;-82
2021/03/26 09:38:35;;;;;;;66.47;30.30;;;14.00;92.80;;;;;;5034085;28;20935;-83
2021/03/26 09:41:22;;;;;;;67.30;29.73;;;14.10;92.50;;;;;;5034465;28;20407;-83
2021/03/26 09:43:54;;;;;;;80.93;32.13;;;14.20;91.60;;;;;;5018424;28;20896;-83
2021/03/26 09:46:41;;;;;;;70.13;32.80;;;14.20;91.70;;;;;;5034254;28;20454;-83
2021/03/26 09:49:16;;;;;;;73.23;31.30;;;14.30;91.40;;;;;;5034031;28;20411;-83
2021/03/26 09:52:09;;;;;;;74.97;32.83;;;14.10;91.20;;;;;;5034109;28;20413;-83
2021/03/26 09:54:45;;;;;;;81.57;34.90;;;14.00;91.10;;;;;;5034042;28;20496;-83
2021/03/26 09:57:25;;;;;;;81.27;31.80;;;14.00;91.30;;;;;;5037169;28;20949;-82
2021/03/26 10:00:19;;;;;;;82.33;34.53;;;14.30;91.00;;;;;;5037903;28;20488;-83
2021/03/26 10:03:10;;;;;;;80.67;35.17;;;14.40;90.50;;;;;;5037804;28;20942;-82
2021/03/26 10:05:58;;;;;;;77.03;33.33;;;14.40;90.30;;;;;;5055912;28;20417;-83
2021/03/26 10:11:10;;;;;;;76.77;34.43;;;14.70;89.70;;;;;;5055596;28;20437;-83
2021/03/26 10:14:08;;;;;;;75.63;36.63;;;14.70;89.90;;;;;;5055562;28;20425;-84
2021/03/26 10:17:10;;;;;;;77.47;34.90;;;14.90;89.20;;;;;;5037731;28;20442;-83
2021/03/26 10:19:50;;;;;;;76.93;34.83;;;15.00;88.90;;;;;;5056098;28;21012;-82
2021/03/26 10:22:29;;;;;;;86.87;36.90;;;14.80;88.70;;;;;;5038443;28;20416;-82
2021/03/26 10:25:44;;;;;;;77.43;36.43;;;14.90;89.50;;;;;;5038627;28;20519;-82
2021/03/26 10:28:23;;;;;;;83.90;36.20;;;15.00;88.60;;;;;;4994178;28;20834;-83
2021/03/26 10:31:15;;;;;;;86.93;37.57;;;15.00;89.00;;;;;;5038350;28;20417;-83
2021/03/26 10:33:55;;;;;;;86.00;37.33;;;15.30;89.60;;;;;;5038770;28;20434;-83
2021/03/26 10:36:46;;;;;;;86.20;36.90;;;15.60;88.30;;;;;;5038659;28;20927;-83
2021/03/26 10:39:19;;;;;;;84.23;36.27;;;15.70;87.80;;;;;;5038135;28;20426;-83
2021/03/26 10:41:51;;;;;;;82.10;37.50;;;15.70;88.30;;;;;;5038319;28;20848;-83
2021/03/26 10:44:27;;;;;;;92.73;40.77;;;15.70;88.50;;;;;;5038082;28;20434;-83
2021/03/26 10:47:34;;;;;;;91.47;37.60;;;15.80;88.00;;;;;;5031686;28;20554;-83
2021/03/26 10:50:14;;;;;;;90.23;41.20;;;15.90;87.80;;;;;;5018542;28;20411;-83
2021/03/26 10:52:52;;;;;;;91.23;37.20;;;15.90;88.90;;;;;;5017945;28;20477;-83
2021/03/26 10:55:26;;;;;;;91.90;40.17;;;15.80;88.30;;;;;;5019431;28;20570;-83
2021/03/26 10:58:06;;;;;;;81.97;37.27;;;15.70;88.50;;;;;;5032570;28;20426;-84
2021/03/26 11:00:34;;;;;;;84.97;37.50;;;15.60;89.00;;;;;;5040461;28;20414;-82
2021/03/26 11:03:16;;;;;;;90.33;37.97;;;15.50;88.70;;;;;;5040161;28;20427;-82
2021/03/26 11:05:52;;;;;;;77.93;37.67;;;15.30;89.30;;;;;;5040701;28;20510;-82
2021/03/26 11:08:38;;;;;;;99.30;42.30;;;15.50;89.00;;;;;;5029082;28;20430;-81
2021/03/26 11:11:10;;;;;;;86.83;39.43;;;15.50;90.00;;;;;;5018080;28;20414;-81
2021/03/26 11:13:46;;;;;;;90.47;40.50;;;15.40;88.90;;;;;;5017055;28;20427;-82
2021/03/26 11:16:16;;;;;;;87.90;42.20;;;15.50;89.60;;;;;;5017065;28;20411;-82
2021/03/26 11:18:57;;;;;;;88.10;42.50;;;15.50;89.10;;;;;;5017171;28;20423;-82
2021/03/26 11:21:24;;;;;;;86.20;41.83;;;15.50;89.20;;;;;;5033715;28;20418;-82
2021/03/26 11:23:59;;;;;;;97.97;44.23;;;15.50;89.10;;;;;;5015423;28;20483;-82
2021/03/26 11:26:35;;;;;;;98.77;44.77;;;15.60;89.60;;;;;;5015546;28;20472;-82
2021/03/26 11:29:23;;;;;;;98.17;44.63;;;15.50;89.10;;;;;;5021613;28;20422;-82
2021/03/26 11:32:06;;;;;;;97.10;43.10;;;15.70;89.60;;;;;;5027954;28;20951;-82
2021/03/26 11:35:00;;;;;;;94.53;44.73;;;15.90;88.80;;;;;;5025036;28;20477;-81
2021/03/26 11:37:29;;;;;;;104.33;46.80;;;16.00;89.10;;;;;;5036192;28;20418;-82
2021/03/26 11:40:28;;;;;;;92.23;42.70;;;16.20;88.00;;;;;;5035552;28;20434;-82
2021/03/26 11:43:15;;;;;;;100.30;43.17;;;16.50;87.60;;;;;;5035741;28;20817;-82
2021/03/26 11:45:55;;;;;;;100.40;45.43;;;16.20;85.10;;;;;;5036055;28;20422;-83
2021/03/26 11:48:38;;;;;;;100.60;44.80;;;15.90;86.70;;;;;;5016621;28;20430;-82
2021/03/26 11:51:21;;;;;;;100.93;43.70;;;16.10;86.50;;;;;;5017707;28;20408;-82
2021/03/26 11:54:07;;;;;;;105.77;49.33;;;16.40;85.40;;;;;;5015069;28;20977;-83
2021/03/26 11:56:40;;;;;;;98.17;46.33;;;16.40;85.70;;;;;;5033910;28;20457;-83
2021/03/26 11:59:43;;;;;;;102.07;46.10;;;16.50;85.80;;;;;;5015711;28;20438;-84
2021/03/26 12:02:26;;;;;;;112.73;48.20;;;16.80;85.30;;;;;;5016677;28;20414;-82
2021/03/26 12:05:16;;;;;;;111.10;52.03;;;17.00;85.10;;;;;;5033641;28;20449;-83
2021/03/26 12:07:53;;;;;;;110.97;51.00;;;17.10;84.50;;;;;;5015140;28;20486;-83
2021/03/26 12:10:28;;;;;;;103.73;46.53;;;16.80;84.20;;;;;;5015098;28;20410;-85
2021/03/26 12:13:11;;;;;;;101.90;46.60;;;16.70;84.90;;;;;;5032156;28;20425;-83
2021/03/26 12:15:51;;;;;;;108.27;48.40;;;16.60;85.40;;;;;;5019455;28;20498;-84
2021/03/26 12:18:24;;;;;;;104.03;47.70;;;16.40;85.50;;;;;;5015117;28;20477;-84
2021/03/26 12:21:01;;;;;;;98.07;46.20;;;16.30;85.90;;;;;;5014049;28;20426;-83
2021/03/26 12:23:38;;;;;;;105.03;49.37;;;16.50;85.70;;;;;;5014125;28;20828;-82
2021/03/26 12:26:23;;;;;;;103.27;46.90;;;16.40;85.20;;;;;;5020327;28;20419;-81
2021/03/26 12:28:55;;;;;;;103.27;49.07;;;16.50;85.30;;;;;;5027428;28;20426;-84
2021/03/26 12:31:56;;;;;;;103.87;46.50;;;16.30;85.10;;;;;;5025992;28;20454;-84
2021/03/26 12:34:54;;;;;;;100.00;46.53;;;16.40;85.10;;;;;;5014980;28;20958;-83
2021/03/26 12:38:04;;;;;;;97.40;44.00;;;16.70;84.90;;;;;;5014255;28;20481;-84
2021/03/26 12:40:49;;;;;;;99.23;47.20;;;16.60;84.50;;;;;;5000121;28;20526;-83
2021/03/26 12:43:30;;;;;;;91.03;43.13;;;16.60;85.00;;;;;;5022747;28;20476;-84
2021/03/26 12:45:58;;;;;;;94.90;46.30;;;16.70;85.30;;;;;;5034589;28;20468;-84
2021/03/26 12:49:03;;;;;;;93.20;45.33;;;16.80;84.40;;;;;;5017186;28;20420;-83
2021/03/26 12:51:33;;;;;;;94.63;45.13;;;16.70;84.30;;;;;;5014497;28;20775;-84
2021/03/26 12:54:19;;;;;;;96.30;45.67;;;16.50;85.00;;;;;;5013658;28;20431;-83
2021/03/26 12:57:01;;;;;;;94.23;45.33;;;16.60;84.90;;;;;;5029989;28;20485;-84
2021/03/26 12:59:32;;;;;;;98.00;44.90;;;17.00;83.50;;;;;;5030958;28;20415;-83
2021/03/26 13:02:25;;;;;;;92.70;43.70;;;17.50;83.30;;;;;;5013868;28;20495;-83
2021/03/26 13:05:22;;;;;;;87.57;41.83;;;17.90;81.30;;;;;;5013882;28;20874;-83
2021/03/26 13:07:54;;;;;;;84.77;38.63;;;18.30;81.00;;;;;;5013469;28;20459;-83
2021/03/26 13:10:57;;;;;;;74.57;36.43;;;17.80;79.10;;;;;;5013620;28;20439;-83
2021/03/26 13:13:28;;;;;;;72.80;35.80;;;17.30;80.40;;;;;;5013515;28;21000;-83
2021/03/26 13:16:14;;;;;;;81.40;37.87;;;17.10;80.10;;;;;;5013645;28;20416;-82
2021/03/26 13:18:47;;;;;;;77.27;37.90;;;17.40;80.90;;;;;;5031073;28;20413;-83
2021/03/26 13:21:21;;;;;;;65.80;32.20;;;18.00;79.30;;;;;;5013540;28;20489;-83
2021/03/26 13:23:54;;;;;;;63.33;30.63;;;18.10;77.60;;;;;;5056186;23;20492;-71
2021/03/26 13:26:24;;;;;;;60.70;30.13;;;17.70;77.20;;;;;;5032038;28;20469;-71
2021/03/26 13:28:59;;;;;;;59.50;32.67;;;17.50;77.20;;;;;;5029977;28;20422;-71
2021/03/26 13:31:53;;;;;;;55.43;30.27;;;17.60;78.50;;;;;;5025301;28;20432;-71
2021/03/26 13:34:30;;;;;;;66.70;33.30;;;17.80;78.00;;;;;;5037303;28;20407;-71
2021/03/26 13:37:02;;;;;;;73.93;36.23;;;18.10;77.40;;;;;;5056449;28;20910;-71
2021/03/26 13:39:47;;;;;;;72.77;37.00;;;18.60;77.80;;;;;;5056930;28;20425;-71
2021/03/26 13:42:32;;;;;;;64.80;33.43;;;18.90;77.00;;;;;;5038746;28;20501;-72
2021/03/26 13:45:10;;;;;;;60.73;33.80;;;18.80;76.70;;;;;;5038826;28;20414;-71
2021/03/26 13:47:48;;;;;;;65.13;34.77;;;18.40;76.60;;;;;;5047726;28;20457;-71
2021/03/26 13:50:17;;;;;;;66.80;32.50;;;18.50;78.00;;;;;;5060502;28;20412;-70
2021/03/26 13:52:47;;;;;;;63.13;32.83;;;18.70;77.00;;;;;;5067951;28;20454;-71
2021/03/26 13:55:16;;;;;;;63.27;32.63;;;18.70;76.60;;;;;;5058761;28;20405;-71
2021/03/26 13:57:45;;;;;;;63.40;33.57;;;18.70;76.40;;;;;;5076703;28;20420;-71
2021/03/26 14:00:23;;;;;;;75.10;38.93;;;19.20;76.90;;;;;;5076720;28;20408;-71
2021/03/26 14:03:27;;;;;;;62.83;33.07;;;19.70;75.60;;;;;;5076885;28;20480;-71
2021/03/26 14:06:22;;;;;;;65.43;33.57;;;18.60;75.10;;;;;;4975399;28;20475;-71
2021/03/26 14:09:05;;;;;;;79.80;38.30;;;18.60;76.00;;;;;;4959238;28;20954;-71
2021/03/26 14:11:57;;;;;;;96.27;46.30;;;18.80;76.50;;;;;;4974636;28;20436;-72